createdAt,value
2019-05-12T00:00:21.417Z,8.80
2019-05-12T00:00:59.508Z,8.93
2019-05-12T00:01:33.920Z,10.93
2019-05-12T00:02:08.545Z,12.28
2019-05-12T00:02:43.211Z,9.88
2019-05-12T00:03:18.874Z,10.32
2019-05-12T00:03:53.333Z,13.10
2019-05-12T00:04:28.136Z,11.10
2019-05-12T00:05:02.976Z,13.55
2019-05-12T00:05:38.293Z,11.22
2019-05-12T00:06:13.114Z,11.73
2019-05-12T00:06:47.967Z,10.28
2019-05-12T00:07:28.586Z,10.65
2019-05-12T00:08:03.352Z,8.85
2019-05-12T00:08:38.178Z,11.83
2019-05-12T00:09:12.982Z,10.32
2019-05-12T00:09:48.046Z,12.15
2019-05-12T00:10:22.564Z,11.18
2019-05-12T00:10:58.255Z,10.15
2019-05-12T00:11:33.084Z,10.13
2019-05-12T00:12:08.263Z,9.58
2019-05-12T00:12:42.806Z,10.68
2019-05-12T00:13:19.041Z,13.55
2019-05-12T00:13:53.282Z,12.88
2019-05-12T00:14:28.291Z,10.48
2019-05-12T00:15:03.016Z,12.90
2019-05-12T00:15:38.434Z,13.98
2019-05-12T00:16:13.219Z,11.25
2019-05-12T00:16:49.265Z,12.70
2019-05-12T00:17:23.731Z,10.60
2019-05-12T00:17:58.601Z,10.23
2019-05-12T00:18:33.592Z,13.25
2019-05-12T00:19:09.249Z,10.18
2019-05-12T00:19:44.114Z,11.48
2019-05-12T00:20:18.631Z,13.95
2019-05-12T00:20:53.235Z,12.05
2019-05-12T00:21:28.274Z,11.48
2019-05-12T00:22:03.125Z,11.30
2019-05-12T00:22:43.071Z,11.38
2019-05-12T00:23:25.077Z,14.18
2019-05-12T00:24:13.009Z,12.00
2019-05-12T00:24:47.877Z,10.05
2019-05-12T00:25:22.474Z,10.13
2019-05-12T00:25:58.711Z,11.63
2019-05-12T00:26:33.848Z,12.98
2019-05-12T00:27:10.982Z,12.70
2019-05-12T00:27:47.881Z,15.48
2019-05-12T00:28:21.664Z,13.15
2019-05-12T00:28:58.679Z,13.80
2019-05-12T00:29:31.985Z,15.75
2019-05-12T00:30:09.885Z,15.43
2019-05-12T00:30:48.964Z,13.72
2019-05-12T00:31:23.387Z,18.32
2019-05-12T00:31:58.083Z,13.93
2019-05-12T00:32:32.834Z,13.55
2019-05-12T00:33:09.326Z,13.45
2019-05-12T00:33:43.912Z,19.27
2019-05-12T00:34:18.555Z,16.52
2019-05-12T00:34:53.110Z,13.45
2019-05-12T00:35:28.481Z,13.08
2019-05-12T00:36:03.033Z,14.13
2019-05-12T00:36:37.972Z,14.35
2019-05-12T00:37:12.647Z,15.58
2019-05-12T00:37:48.603Z,19.85
2019-05-12T00:38:23.362Z,17.02
2019-05-12T00:38:58.013Z,16.57
2019-05-12T00:39:32.852Z,11.33
2019-05-12T00:40:08.859Z,13.75
2019-05-12T00:40:43.666Z,13.48
2019-05-12T00:41:18.235Z,18.12
2019-05-12T00:41:53.021Z,14.83
2019-05-12T00:42:28.796Z,15.40
2019-05-12T00:43:03.556Z,14.93
2019-05-12T00:43:38.268Z,13.35
2019-05-12T00:44:13.056Z,18.67
2019-05-12T00:44:47.926Z,11.53
2019-05-12T00:45:22.680Z,12.95
2019-05-12T00:45:58.702Z,17.65
2019-05-12T00:46:33.704Z,12.85
2019-05-12T00:47:08.274Z,15.05
2019-05-12T00:47:42.988Z,17.80
2019-05-12T00:48:17.840Z,14.03
2019-05-12T00:48:52.487Z,11.60
2019-05-12T00:49:28.937Z,13.60
2019-05-12T00:50:03.633Z,12.40
2019-05-12T00:50:38.340Z,16.05
2019-05-12T00:51:13.289Z,11.30
2019-05-12T00:51:48.535Z,12.63
2019-05-12T00:52:23.268Z,12.28
2019-05-12T00:52:58.182Z,14.70
2019-05-12T00:53:39.976Z,13.20
2019-05-12T00:54:09.494Z,14.78
2019-05-12T00:54:44.044Z,12.13
2019-05-12T00:55:18.525Z,10.63
2019-05-12T00:55:53.228Z,10.93
2019-05-12T00:56:28.483Z,16.93
2019-05-12T00:57:03.213Z,12.37
2019-05-12T00:57:38.263Z,12.20
2019-05-12T00:58:13.197Z,14.53
2019-05-12T00:58:48.771Z,14.07
2019-05-12T00:59:23.391Z,13.50
2019-05-12T00:59:58.199Z,15.05
2019-05-12T01:00:33.252Z,12.95
2019-05-12T01:01:08.273Z,14.33
2019-05-12T01:01:42.970Z,10.85
2019-05-12T01:02:18.318Z,15.83
2019-05-12T01:02:53.153Z,14.80
2019-05-12T01:03:28.055Z,13.65
2019-05-12T01:04:02.632Z,12.82
2019-05-12T01:04:38.172Z,20.70
2019-05-12T01:05:13.192Z,26.33
2019-05-12T01:05:48.540Z,19.52
2019-05-12T01:06:23.289Z,16.80
2019-05-12T01:06:58.275Z,15.65
2019-05-12T01:07:32.801Z,15.35
2019-05-12T01:08:09.055Z,17.10
2019-05-12T01:08:43.841Z,18.70
2019-05-12T01:09:18.207Z,17.07
2019-05-12T01:09:52.972Z,20.65
2019-05-12T01:10:28.557Z,17.00
2019-05-12T01:11:03.510Z,17.00
2019-05-12T01:11:38.004Z,14.23
2019-05-12T01:12:12.742Z,17.77
2019-05-12T01:12:48.596Z,18.25
2019-05-12T01:13:23.190Z,14.10
2019-05-12T01:13:58.321Z,17.17
2019-05-12T01:14:33.226Z,12.90
2019-05-12T01:15:08.715Z,16.90
2019-05-12T01:15:43.230Z,21.07
2019-05-12T01:16:18.397Z,14.83
2019-05-12T01:16:53.274Z,17.42
2019-05-12T01:17:32.544Z,20.35
2019-05-12T01:18:09.404Z,22.05
2019-05-12T01:18:43.146Z,19.90
2019-05-12T01:19:18.525Z,17.87
2019-05-12T01:19:53.738Z,20.08
2019-05-12T01:20:28.681Z,18.75
2019-05-12T01:21:02.925Z,14.63
2019-05-12T01:21:37.863Z,14.55
2019-05-12T01:22:12.696Z,13.75
2019-05-12T01:22:50.367Z,14.00
2019-05-12T01:23:23.686Z,14.25
2019-05-12T01:24:03.376Z,12.95
2019-05-12T01:24:34.561Z,19.57
2019-05-12T01:25:09.350Z,12.95
2019-05-12T01:25:43.530Z,12.85
2019-05-12T01:26:18.208Z,14.40
2019-05-12T01:26:52.751Z,12.45
2019-05-12T01:27:28.798Z,13.00
2019-05-12T01:28:03.178Z,19.50
2019-05-12T01:28:38.343Z,15.28
2019-05-12T01:29:13.107Z,13.58
2019-05-12T01:29:48.072Z,20.20
2019-05-12T01:30:22.463Z,17.37
2019-05-12T01:30:58.703Z,13.72
2019-05-12T01:31:37.863Z,19.25
2019-05-12T01:32:28.723Z,17.87
2019-05-12T01:33:03.438Z,19.62
2019-05-12T01:33:38.201Z,16.17
2019-05-12T01:34:12.748Z,14.90
2019-05-12T01:34:48.657Z,12.93
2019-05-12T01:35:23.204Z,15.00
2019-05-12T01:35:58.699Z,14.13
2019-05-12T01:36:33.489Z,15.50
2019-05-12T01:37:28.022Z,12.35
2019-05-12T01:38:02.350Z,15.35
2019-05-12T01:38:37.947Z,13.35
2019-05-12T01:39:12.926Z,12.33
2019-05-12T01:39:49.158Z,19.23
2019-05-12T01:40:23.562Z,16.27
2019-05-12T01:40:58.494Z,16.35
2019-05-12T01:41:33.219Z,15.98
2019-05-12T01:42:09.122Z,16.25
2019-05-12T01:42:43.624Z,14.23
2019-05-12T01:43:20.991Z,18.48
2019-05-12T01:43:54.542Z,18.65
2019-05-12T01:44:29.006Z,17.73
2019-05-12T01:45:03.209Z,16.05
2019-05-12T01:45:38.384Z,14.13
2019-05-12T01:46:12.921Z,16.05
2019-05-12T01:46:48.400Z,15.58
2019-05-12T01:47:22.667Z,16.60
2019-05-12T01:47:58.998Z,15.15
2019-05-12T01:48:33.577Z,15.08
2019-05-12T01:49:08.476Z,17.45
2019-05-12T01:49:42.876Z,16.52
2019-05-12T01:50:17.870Z,17.95
2019-05-12T01:50:52.583Z,16.12
2019-05-12T01:51:28.438Z,13.83
2019-05-12T01:52:02.864Z,17.48
2019-05-12T01:52:38.580Z,16.80
2019-05-12T01:53:13.464Z,13.43
2019-05-12T01:53:48.309Z,11.25
2019-05-12T01:54:22.530Z,17.00
2019-05-12T01:54:59.045Z,15.08
2019-05-12T01:55:33.448Z,13.90
2019-05-12T01:56:08.112Z,14.35
2019-05-12T01:56:42.205Z,12.35
2019-05-12T01:57:18.846Z,16.57
2019-05-12T01:57:53.271Z,15.55
2019-05-12T01:58:27.970Z,14.00
2019-05-12T01:59:02.000Z,13.70
2019-05-12T01:59:38.136Z,12.33
2019-05-12T02:00:14.486Z,14.18
2019-05-12T02:00:49.198Z,14.87
2019-05-12T02:01:23.389Z,14.78
2019-05-12T02:01:58.250Z,15.38
2019-05-12T02:02:32.900Z,14.15
2019-05-12T02:03:08.992Z,14.98
2019-05-12T02:03:43.088Z,14.00
2019-05-12T02:04:18.112Z,11.78
2019-05-12T02:05:08.496Z,12.82
2019-05-12T02:05:45.145Z,13.05
2019-05-12T02:06:19.919Z,15.93
2019-05-12T02:06:54.568Z,13.05
2019-05-12T02:07:29.275Z,13.78
2019-05-12T02:08:03.786Z,14.35
2019-05-12T02:08:44.159Z,13.05
2019-05-12T02:09:20.410Z,15.50
2019-05-12T02:09:55.047Z,12.35
2019-05-12T02:10:29.301Z,11.50
2019-05-12T02:11:22.550Z,12.20
2019-05-12T02:11:58.213Z,14.38
2019-05-12T02:12:32.574Z,13.13
2019-05-12T02:13:07.882Z,15.50
2019-05-12T02:13:43.369Z,12.18
2019-05-12T02:14:18.412Z,15.03
2019-05-12T02:14:52.868Z,14.65
2019-05-12T02:15:27.981Z,12.55
2019-05-12T02:16:02.705Z,14.25
2019-05-12T02:16:38.728Z,12.33
2019-05-12T02:17:13.059Z,9.70
2019-05-12T02:17:48.286Z,18.23
2019-05-12T02:18:22.882Z,13.13
2019-05-12T02:18:58.327Z,12.73
2019-05-12T02:19:32.835Z,15.75
2019-05-12T02:20:08.917Z,13.03
2019-05-12T02:20:43.796Z,12.90
2019-05-12T02:21:18.887Z,11.88
2019-05-12T02:21:53.537Z,13.68
2019-05-12T02:22:27.953Z,16.00
2019-05-12T02:23:02.429Z,11.20
2019-05-12T02:23:38.669Z,12.78
2019-05-12T02:24:24.290Z,11.55
2019-05-12T02:24:49.347Z,18.55
2019-05-12T02:25:23.948Z,11.50
2019-05-12T02:25:58.615Z,13.83
2019-05-12T02:26:33.083Z,15.13
2019-05-12T02:27:08.293Z,17.57
2019-05-12T02:27:43.333Z,14.63
2019-05-12T02:28:18.102Z,15.58
2019-05-12T02:28:52.476Z,13.25
2019-05-12T02:29:28.523Z,13.08
2019-05-12T02:30:03.353Z,13.43
2019-05-12T02:30:41.469Z,15.85
2019-05-12T02:31:13.874Z,16.17
2019-05-12T02:31:50.098Z,17.52
2019-05-12T02:32:29.385Z,17.40
2019-05-12T02:33:00.709Z,12.85
2019-05-12T02:33:35.697Z,13.50
2019-05-12T02:34:10.396Z,12.55
2019-05-12T02:34:45.765Z,19.98
2019-05-12T02:35:20.361Z,14.80
2019-05-12T02:35:54.958Z,14.63
2019-05-12T02:36:29.425Z,13.58
2019-05-12T02:37:05.278Z,15.40
2019-05-12T02:37:40.243Z,11.97
2019-05-12T02:38:14.706Z,12.78
2019-05-12T02:38:49.359Z,17.10
2019-05-12T02:39:24.789Z,17.70
2019-05-12T02:39:59.895Z,17.57
2019-05-12T02:40:34.860Z,15.40
2019-05-12T02:41:09.838Z,16.25
2019-05-12T02:41:44.909Z,13.83
2019-05-12T02:42:19.879Z,14.30
2019-05-12T02:42:55.005Z,12.25
2019-05-12T02:43:29.829Z,11.83
2019-05-12T02:44:05.222Z,13.72
2019-05-12T02:44:40.392Z,16.05
2019-05-12T02:45:15.575Z,13.60
2019-05-12T02:45:50.280Z,14.98
2019-05-12T02:46:25.761Z,14.40
2019-05-12T02:47:00.440Z,17.92
2019-05-12T02:47:34.968Z,17.40
2019-05-12T02:48:09.581Z,19.77
2019-05-12T02:48:45.031Z,16.45
2019-05-12T02:49:19.816Z,14.75
2019-05-12T02:49:54.551Z,21.30
2019-05-12T02:50:36.055Z,17.05
2019-05-12T02:51:15.238Z,17.87
2019-05-12T02:51:50.046Z,22.25
2019-05-12T02:52:25.168Z,21.00
2019-05-12T02:53:00.197Z,19.57
2019-05-12T02:53:35.349Z,22.05
2019-05-12T02:54:10.236Z,16.80
2019-05-12T02:54:51.922Z,16.77
2019-05-12T02:55:25.402Z,14.95
2019-05-12T02:55:59.096Z,15.68
2019-05-12T02:56:35.853Z,15.15
2019-05-12T02:57:14.312Z,16.65
2019-05-12T02:57:50.285Z,19.05
2019-05-12T02:58:27.456Z,14.03
2019-05-12T02:59:05.215Z,16.17
2019-05-12T02:59:44.775Z,19.60
2019-05-12T03:00:18.065Z,14.85
2019-05-12T03:00:54.767Z,15.45
2019-05-12T03:01:30.358Z,16.15
2019-05-12T03:02:05.443Z,16.00
2019-05-12T03:02:44.216Z,22.30
2019-05-12T03:03:20.011Z,15.45
2019-05-12T03:03:58.701Z,16.27
2019-05-12T03:04:35.096Z,18.20
2019-05-12T03:05:10.231Z,20.35
2019-05-12T03:05:46.581Z,16.60
2019-05-12T03:06:21.233Z,19.65
2019-05-12T03:06:56.808Z,19.62
2019-05-12T03:07:34.596Z,18.15
2019-05-12T03:08:08.947Z,23.02
2019-05-12T03:08:45.137Z,22.48
2019-05-12T03:09:19.367Z,18.15
2019-05-12T03:09:56.011Z,18.42
2019-05-12T03:10:35.685Z,16.70
2019-05-12T03:11:10.362Z,19.00
2019-05-12T03:11:46.446Z,19.32
2019-05-12T03:12:21.101Z,16.65
2019-05-12T03:12:56.275Z,16.70
2019-05-12T03:13:34.383Z,14.45
2019-05-12T03:14:07.001Z,16.73
2019-05-12T03:14:44.640Z,16.50
2019-05-12T03:15:17.890Z,18.17
2019-05-12T03:15:54.848Z,15.30
2019-05-12T03:16:28.159Z,19.95
2019-05-12T03:17:04.700Z,20.70
2019-05-12T03:17:39.278Z,17.25
2019-05-12T03:18:14.629Z,20.12
2019-05-12T03:18:49.080Z,16.15
2019-05-12T03:19:25.244Z,21.42
2019-05-12T03:19:59.835Z,17.57
2019-05-12T03:20:35.403Z,20.72
2019-05-12T03:21:10.103Z,19.02
2019-05-12T03:21:44.559Z,18.82
2019-05-12T03:22:19.117Z,17.42
2019-05-12T03:22:55.430Z,15.50
2019-05-12T03:23:29.521Z,14.20
2019-05-12T03:24:06.063Z,17.50
2019-05-12T03:24:40.261Z,16.82
2019-05-12T03:25:23.993Z,17.10
2019-05-12T03:25:54.423Z,17.37
2019-05-12T03:26:27.338Z,12.37
2019-05-12T03:27:04.334Z,16.75
2019-05-12T03:27:38.102Z,16.73
2019-05-12T03:28:15.591Z,14.18
2019-05-12T03:28:48.535Z,16.97
2019-05-12T03:29:25.075Z,25.60
2019-05-12T03:29:59.047Z,17.82
2019-05-12T03:30:38.481Z,17.67
2019-05-12T03:31:09.471Z,18.05
2019-05-12T03:31:48.740Z,18.90
2019-05-12T03:32:20.227Z,19.35
2019-05-12T03:32:57.980Z,19.77
2019-05-12T03:33:35.992Z,18.32
2019-05-12T03:34:10.292Z,16.80
2019-05-12T03:34:47.407Z,15.13
2019-05-12T03:35:18.970Z,16.70
2019-05-12T03:36:00.212Z,15.72
2019-05-12T03:36:34.836Z,15.63
2019-05-12T03:37:07.966Z,19.52
2019-05-12T03:37:45.164Z,21.62
2019-05-12T03:38:18.253Z,21.45
2019-05-12T03:38:55.125Z,21.85
2019-05-12T03:39:28.876Z,19.35
2019-05-12T03:40:05.473Z,24.15
2019-05-12T03:40:39.672Z,24.85
2019-05-12T03:41:14.923Z,22.87
2019-05-12T03:41:49.579Z,20.37
2019-05-12T03:42:25.021Z,20.77
2019-05-12T03:42:59.817Z,19.05
2019-05-12T03:43:35.226Z,20.40
2019-05-12T03:44:09.847Z,15.83
2019-05-12T03:44:44.620Z,15.43
2019-05-12T03:45:19.168Z,15.58
2019-05-12T03:45:55.842Z,17.23
2019-05-12T03:46:29.729Z,16.75
2019-05-12T03:47:05.047Z,15.63
2019-05-12T03:47:40.064Z,15.48
2019-05-12T03:48:15.219Z,16.85
2019-05-12T03:48:49.995Z,15.08
2019-05-12T03:49:24.664Z,16.87
2019-05-12T03:49:59.394Z,15.93
2019-05-12T03:50:35.443Z,16.82
2019-05-12T03:51:11.026Z,16.45
2019-05-12T03:51:45.804Z,15.65
2019-05-12T03:52:20.612Z,17.02
2019-05-12T03:52:56.593Z,17.23
2019-05-12T03:53:34.935Z,18.67
2019-05-12T03:54:07.280Z,18.65
2019-05-12T03:54:44.940Z,17.15
2019-05-12T03:55:35.005Z,19.05
2019-05-12T03:55:55.381Z,19.10
2019-05-12T03:56:29.664Z,17.60
2019-05-12T03:57:04.630Z,16.55
2019-05-12T03:57:39.206Z,17.40
2019-05-12T03:58:15.283Z,18.02
2019-05-12T03:58:49.883Z,18.42
2019-05-12T03:59:25.604Z,15.58
2019-05-12T04:00:00.525Z,16.25
2019-05-12T04:00:36.293Z,17.73
2019-05-12T04:01:10.879Z,16.77
2019-05-12T04:01:45.522Z,14.58
2019-05-12T04:02:20.358Z,12.78
2019-05-12T04:02:55.708Z,15.68
2019-05-12T04:03:29.960Z,12.20
2019-05-12T04:04:05.395Z,16.95
2019-05-12T04:04:40.278Z,18.98
2019-05-12T04:05:15.819Z,14.93
2019-05-12T04:05:50.020Z,14.40
2019-05-12T04:06:24.914Z,16.20
2019-05-12T04:06:59.734Z,14.63
2019-05-12T04:07:34.695Z,14.07
2019-05-12T04:08:08.981Z,16.65
2019-05-12T04:08:45.518Z,18.37
2019-05-12T04:09:19.960Z,13.45
2019-05-12T04:09:54.944Z,11.55
2019-05-12T04:10:29.259Z,13.32
2019-05-12T04:11:05.331Z,15.50
2019-05-12T04:11:40.038Z,14.05
2019-05-12T04:12:15.009Z,13.30
2019-05-12T04:12:49.234Z,11.75
2019-05-12T04:13:26.529Z,12.23
2019-05-12T04:14:00.313Z,17.23
2019-05-12T04:14:34.911Z,14.25
2019-05-12T04:15:09.637Z,12.40
2019-05-12T04:15:45.507Z,17.25
2019-05-12T04:16:20.388Z,11.73
2019-05-12T04:16:55.374Z,14.95
2019-05-12T04:17:29.486Z,14.30
2019-05-12T04:18:05.414Z,12.18
2019-05-12T04:18:40.372Z,14.53
2019-05-12T04:19:15.169Z,11.73
2019-05-12T04:19:49.499Z,12.15
2019-05-12T04:20:25.436Z,13.83
2019-05-12T04:21:00.461Z,10.35
2019-05-12T04:21:35.663Z,15.40
2019-05-12T04:22:10.010Z,14.03
2019-05-12T04:22:44.871Z,17.45
2019-05-12T04:23:19.719Z,14.15
2019-05-12T04:23:55.048Z,17.70
2019-05-12T04:24:29.345Z,15.88
2019-05-12T04:25:06.129Z,19.07
2019-05-12T04:25:52.819Z,14.87
2019-05-12T04:26:17.372Z,17.70
2019-05-12T04:26:54.919Z,12.60
2019-05-12T04:27:28.136Z,14.43
2019-05-12T04:28:04.810Z,16.05
2019-05-12T04:28:39.089Z,13.50
2019-05-12T04:29:15.438Z,15.65
2019-05-12T04:29:49.553Z,15.13
2019-05-12T04:30:24.966Z,12.00
2019-05-12T04:30:59.985Z,15.28
2019-05-12T04:31:35.126Z,14.38
2019-05-12T04:32:09.810Z,12.95
2019-05-12T04:32:45.367Z,16.05
2019-05-12T04:33:20.305Z,21.73
2019-05-12T04:33:54.849Z,13.78
2019-05-12T04:34:29.534Z,23.35
2019-05-12T04:35:04.893Z,14.63
2019-05-12T04:35:39.865Z,17.02
2019-05-12T04:36:14.914Z,14.47
2019-05-12T04:36:49.732Z,18.40
2019-05-12T04:37:25.071Z,15.65
2019-05-12T04:38:00.045Z,13.60
2019-05-12T04:38:35.490Z,15.05
2019-05-12T04:39:10.319Z,16.10
2019-05-12T04:39:44.820Z,16.07
2019-05-12T04:40:19.570Z,15.80
2019-05-12T04:40:55.277Z,15.05
2019-05-12T04:41:30.006Z,12.68
2019-05-12T04:42:05.363Z,13.90
2019-05-12T04:42:40.103Z,14.30
2019-05-12T04:43:14.880Z,14.80
2019-05-12T04:43:49.767Z,16.30
2019-05-12T04:44:25.219Z,18.80
2019-05-12T04:45:00.310Z,19.02
2019-05-12T04:45:35.044Z,16.50
2019-05-12T04:46:10.185Z,16.15
2019-05-12T04:46:45.299Z,15.18
2019-05-12T04:47:20.085Z,15.43
2019-05-12T04:47:55.316Z,16.12
2019-05-12T04:48:30.257Z,13.50
2019-05-12T04:49:05.590Z,17.32
2019-05-12T04:49:40.540Z,16.62
2019-05-12T04:50:15.765Z,21.07
2019-05-12T04:50:50.459Z,16.35
2019-05-12T04:51:26.188Z,15.05
2019-05-12T04:52:00.965Z,13.05
2019-05-12T04:52:35.576Z,15.45
2019-05-12T04:53:10.576Z,16.27
2019-05-12T04:53:45.420Z,16.15
2019-05-12T04:54:20.068Z,13.65
2019-05-12T04:54:55.377Z,13.28
2019-05-12T04:55:30.269Z,14.10
2019-05-12T04:56:15.313Z,15.15
2019-05-12T04:56:44.350Z,15.35
2019-05-12T04:57:20.994Z,14.15
2019-05-12T04:57:54.549Z,16.15
2019-05-12T04:58:29.473Z,17.20
2019-05-12T04:59:05.021Z,15.48
2019-05-12T04:59:39.881Z,17.15
2019-05-12T05:00:16.002Z,15.05
2019-05-12T05:00:54.042Z,15.25
2019-05-12T05:01:27.388Z,16.12
2019-05-12T05:02:05.183Z,16.62
2019-05-12T05:02:38.388Z,16.85
2019-05-12T05:03:14.090Z,18.85
2019-05-12T05:03:49.175Z,15.45
2019-05-12T05:04:24.376Z,12.95
2019-05-12T05:04:59.474Z,15.65
2019-05-12T05:05:35.414Z,15.48
2019-05-12T05:06:10.488Z,17.32
2019-05-12T05:06:45.228Z,14.55
2019-05-12T05:07:20.351Z,16.97
2019-05-12T05:07:55.245Z,19.92
2019-05-12T05:08:29.889Z,14.90
2019-05-12T05:09:07.244Z,12.43
2019-05-12T05:09:44.244Z,13.45
2019-05-12T05:10:18.350Z,15.68
2019-05-12T05:10:54.792Z,12.07
2019-05-12T05:11:29.153Z,13.35
2019-05-12T05:12:04.639Z,13.45
2019-05-12T05:12:39.396Z,12.35
2019-05-12T05:13:14.990Z,12.43
2019-05-12T05:13:49.976Z,13.53
2019-05-12T05:14:24.944Z,14.38
2019-05-12T05:14:59.901Z,13.65
2019-05-12T05:15:35.423Z,13.95
2019-05-12T05:16:10.193Z,13.65
2019-05-12T05:16:45.512Z,16.97
2019-05-12T05:17:20.420Z,13.35
2019-05-12T05:17:54.988Z,12.90
2019-05-12T05:18:29.397Z,12.07
2019-05-12T05:19:04.143Z,13.43
2019-05-12T05:19:39.038Z,12.20
2019-05-12T05:20:13.759Z,14.80
2019-05-12T05:20:48.250Z,19.35
2019-05-12T05:21:24.018Z,14.10
2019-05-12T05:21:58.938Z,14.85
2019-05-12T05:22:33.628Z,15.93
2019-05-12T05:23:08.027Z,14.58
2019-05-12T05:23:44.283Z,15.85
2019-05-12T05:24:19.206Z,16.25
2019-05-12T05:24:53.814Z,13.05
2019-05-12T05:25:28.127Z,13.20
2019-05-12T05:26:03.345Z,17.25
2019-05-12T05:26:38.328Z,11.03
2019-05-12T05:27:13.333Z,12.35
2019-05-12T05:27:47.979Z,12.10
2019-05-12T05:28:23.653Z,12.80
2019-05-12T05:28:58.346Z,12.18
2019-05-12T05:29:34.217Z,12.00
2019-05-12T05:30:09.547Z,13.45
2019-05-12T05:30:44.385Z,11.80
2019-05-12T05:31:19.091Z,11.48
2019-05-12T05:31:53.845Z,12.58
2019-05-12T05:32:28.251Z,14.25
2019-05-12T05:33:04.689Z,14.90
2019-05-12T05:33:39.518Z,11.68
2019-05-12T05:34:14.908Z,11.15
2019-05-12T05:34:53.725Z,12.70
2019-05-12T05:35:28.936Z,14.43
2019-05-12T05:36:03.495Z,14.63
2019-05-12T05:36:38.274Z,15.13
2019-05-12T05:37:14.618Z,17.77
2019-05-12T05:37:49.012Z,21.00
2019-05-12T05:38:23.778Z,20.35
2019-05-12T05:39:01.799Z,23.62
2019-05-12T05:39:35.711Z,18.90
2019-05-12T05:40:13.871Z,20.97
2019-05-12T05:40:47.623Z,16.62
2019-05-12T05:41:23.934Z,17.55
2019-05-12T05:41:58.261Z,20.43
2019-05-12T05:42:35.516Z,18.55
2019-05-12T05:43:17.507Z,23.25
2019-05-12T05:43:48.632Z,21.37
2019-05-12T05:44:23.875Z,17.98
2019-05-12T05:44:58.142Z,18.73
2019-05-12T05:45:35.231Z,17.35
2019-05-12T05:46:09.020Z,19.07
2019-05-12T05:46:48.296Z,22.48
2019-05-12T05:47:24.208Z,23.00
2019-05-12T05:47:59.616Z,21.82
2019-05-12T05:48:35.116Z,19.62
2019-05-12T05:49:08.479Z,22.37
2019-05-12T05:49:43.490Z,21.12
2019-05-12T05:50:23.155Z,23.20
2019-05-12T05:50:54.805Z,22.15
2019-05-12T05:51:29.340Z,20.23
2019-05-12T05:52:03.926Z,20.37
2019-05-12T05:52:38.962Z,21.82
2019-05-12T05:53:17.390Z,20.95
2019-05-12T05:53:50.162Z,22.73
2019-05-12T05:54:31.295Z,23.55
2019-05-12T05:55:05.820Z,21.80
2019-05-12T05:55:38.353Z,21.35
2019-05-12T05:56:14.704Z,22.82
2019-05-12T05:56:58.170Z,22.48
2019-05-12T05:57:28.580Z,23.42
2019-05-12T05:58:05.837Z,22.75
2019-05-12T05:58:40.358Z,21.20
2019-05-12T05:59:15.207Z,21.40
2019-05-12T05:59:50.045Z,20.65
2019-05-12T06:00:26.330Z,21.65
2019-05-12T06:01:03.861Z,21.00
2019-05-12T06:01:40.192Z,23.75
2019-05-12T06:02:13.940Z,20.85
2019-05-12T06:02:48.313Z,23.12
2019-05-12T06:03:27.820Z,21.15
2019-05-12T06:04:04.347Z,21.57
2019-05-12T06:04:39.175Z,24.75
2019-05-12T06:05:14.270Z,22.05
2019-05-12T06:05:48.453Z,21.65
2019-05-12T06:06:23.772Z,22.10
2019-05-12T06:06:58.858Z,21.50
2019-05-12T06:07:38.786Z,24.07
2019-05-12T06:08:15.169Z,23.77
2019-05-12T06:08:57.888Z,21.17
2019-05-12T06:09:33.927Z,19.55
2019-05-12T06:10:09.555Z,21.00
2019-05-12T06:10:44.496Z,23.52
2019-05-12T06:11:23.909Z,23.27
2019-05-12T06:11:59.040Z,26.02
2019-05-12T06:12:33.515Z,23.85
2019-05-12T06:13:07.753Z,23.20
2019-05-12T06:13:44.329Z,26.75
2019-05-12T06:14:18.912Z,25.05
2019-05-12T06:14:55.392Z,27.93
2019-05-12T06:15:34.707Z,26.00
2019-05-12T06:16:06.078Z,25.75
2019-05-12T06:16:43.208Z,24.35
2019-05-12T06:17:17.131Z,23.27
2019-05-12T06:17:53.516Z,24.52
2019-05-12T06:18:29.062Z,25.62
2019-05-12T06:19:03.872Z,25.55
2019-05-12T06:19:38.510Z,24.85
2019-05-12T06:20:13.603Z,26.42
2019-05-12T06:20:48.134Z,26.75
2019-05-12T06:21:24.161Z,27.50
2019-05-12T06:21:58.961Z,26.80
2019-05-12T06:22:34.334Z,23.87
2019-05-12T06:23:09.255Z,26.40
2019-05-12T06:23:43.855Z,27.07
2019-05-12T06:24:20.058Z,30.08
2019-05-12T06:24:58.747Z,26.82
2019-05-12T06:25:45.013Z,29.95
2019-05-12T06:26:07.173Z,26.45
2019-05-12T06:26:54.648Z,24.18
2019-05-12T06:27:21.083Z,28.23
2019-05-12T06:28:00.068Z,27.80
2019-05-12T06:28:31.209Z,28.60
2019-05-12T06:29:11.316Z,29.80
2019-05-12T06:29:43.713Z,27.35
2019-05-12T06:30:19.240Z,26.60
2019-05-12T06:30:54.622Z,25.75
2019-05-12T06:31:30.150Z,28.60
2019-05-12T06:32:08.739Z,27.52
2019-05-12T06:32:46.093Z,28.27
2019-05-12T06:33:21.783Z,27.42
2019-05-12T06:33:53.658Z,32.35
2019-05-12T06:34:28.573Z,30.27
2019-05-12T06:35:04.617Z,26.87
2019-05-12T06:35:42.199Z,26.80
2019-05-12T06:36:22.148Z,25.08
2019-05-12T06:36:56.499Z,29.50
2019-05-12T06:37:28.393Z,26.07
2019-05-12T06:38:04.989Z,26.50
2019-05-12T06:38:40.614Z,26.17
2019-05-12T06:39:18.642Z,31.85
2019-05-12T06:39:56.517Z,28.40
2019-05-12T06:40:30.831Z,26.87
2019-05-12T06:41:04.038Z,27.65
2019-05-12T06:41:38.717Z,26.27
2019-05-12T06:42:16.821Z,29.75
2019-05-12T06:42:55.583Z,28.20
2019-05-12T06:43:29.234Z,31.87
2019-05-12T06:44:03.703Z,26.37
2019-05-12T06:44:38.698Z,29.60
2019-05-12T06:45:14.239Z,32.40
2019-05-12T06:45:48.557Z,32.05
2019-05-12T06:46:25.694Z,30.85
2019-05-12T06:47:03.320Z,32.45
2019-05-12T06:47:39.478Z,28.35
2019-05-12T06:48:13.979Z,28.55
2019-05-12T06:48:48.227Z,32.58
2019-05-12T06:49:24.620Z,31.60
2019-05-12T06:49:59.620Z,29.02
2019-05-12T06:50:38.948Z,30.52
2019-05-12T06:51:16.934Z,29.30
2019-05-12T06:51:46.917Z,27.85
2019-05-12T06:52:23.700Z,33.38
2019-05-12T06:52:57.878Z,35.40
2019-05-12T06:53:33.649Z,30.55
2019-05-12T06:54:12.043Z,29.95
2019-05-12T06:54:51.157Z,29.85
2019-05-12T06:55:20.933Z,29.42
2019-05-12T06:55:55.532Z,30.30
2019-05-12T06:56:30.245Z,30.27
2019-05-12T06:57:20.888Z,30.57
2019-05-12T06:57:48.048Z,34.10
2019-05-12T06:58:26.062Z,33.38
2019-05-12T06:58:53.926Z,36.17
2019-05-12T06:59:28.510Z,34.63
2019-05-12T07:00:04.552Z,31.87
2019-05-12T07:00:39.272Z,29.85
2019-05-12T07:01:19.091Z,31.73
2019-05-12T07:01:56.017Z,30.27
2019-05-12T07:02:30.334Z,34.08
2019-05-12T07:03:04.019Z,32.17
2019-05-12T07:03:38.967Z,33.95
2019-05-12T07:04:14.163Z,32.67
2019-05-12T07:04:56.262Z,37.33
2019-05-12T07:05:28.038Z,35.08
2019-05-12T07:06:01.156Z,37.15
2019-05-12T07:06:35.981Z,36.50
2019-05-12T07:07:10.246Z,38.65
2019-05-12T07:07:46.169Z,35.38
2019-05-12T07:08:30.315Z,37.48
2019-05-12T07:09:08.545Z,37.93
2019-05-12T07:09:36.688Z,37.45
2019-05-12T07:10:15.121Z,36.63
2019-05-12T07:10:51.684Z,38.92
2019-05-12T07:11:24.331Z,39.08
2019-05-12T07:12:03.691Z,41.25
2019-05-12T07:12:39.749Z,40.48
2019-05-12T07:13:14.839Z,41.20
2019-05-12T07:14:01.001Z,40.38
2019-05-12T07:14:27.135Z,41.05
2019-05-12T07:15:00.319Z,39.70
2019-05-12T07:15:40.124Z,42.05
2019-05-12T07:16:21.829Z,42.65
2019-05-12T07:17:01.528Z,40.60
2019-05-12T07:17:50.091Z,38.83
2019-05-12T07:18:32.211Z,36.83
2019-05-12T07:19:00.739Z,37.90
2019-05-12T07:19:35.508Z,41.02
2019-05-12T07:20:10.411Z,39.50
2019-05-12T07:20:45.038Z,44.38
2019-05-12T07:21:22.103Z,40.05
2019-05-12T07:21:59.855Z,40.50
2019-05-12T07:22:43.727Z,41.00
2019-05-12T07:23:08.830Z,44.13
2019-05-12T07:23:44.462Z,43.68
2019-05-12T07:24:19.334Z,45.95
2019-05-12T07:24:54.798Z,50.52
2019-05-12T07:25:31.146Z,50.10
2019-05-12T07:26:13.986Z,52.93
2019-05-12T07:26:44.143Z,56.70
2019-05-12T07:27:18.277Z,53.80
2019-05-12T07:27:58.568Z,53.73
2019-05-12T07:28:30.411Z,54.42
2019-05-12T07:29:05.227Z,61.28
2019-05-12T07:29:40.000Z,59.45
2019-05-12T07:30:14.869Z,58.10
2019-05-12T07:30:49.982Z,62.73
2019-05-12T07:31:25.490Z,68.67
2019-05-12T07:32:00.729Z,64.35
2019-05-12T07:32:35.869Z,59.23
2019-05-12T07:33:10.426Z,58.78
2019-05-12T07:33:45.941Z,55.63
2019-05-12T07:34:20.776Z,59.38
2019-05-12T07:34:55.517Z,57.65
2019-05-12T07:35:30.211Z,57.05
2019-05-12T07:36:06.433Z,57.35
2019-05-12T07:36:44.293Z,55.83
2019-05-12T07:37:20.780Z,55.35